createdAt,value
2018-12-22T00:00:27.763Z,0.00
2018-12-22T00:01:27.761Z,0.00
2018-12-22T00:02:27.743Z,0.00
2018-12-22T00:03:27.740Z,0.00
2018-12-22T00:04:27.736Z,0.00
2018-12-22T00:05:27.714Z,0.00
2018-12-22T00:06:27.699Z,0.00
2018-12-22T00:07:27.693Z,0.00
2018-12-22T00:08:27.684Z,0.00
2018-12-22T00:09:27.677Z,0.00
2018-12-22T00:10:27.675Z,0.00
2018-12-22T00:11:27.671Z,0.00
2018-12-22T00:12:27.657Z,0.00
2018-12-22T00:13:27.650Z,0.00
2018-12-22T00:14:27.620Z,0.00
2018-12-22T00:15:27.605Z,0.00
2018-12-22T00:16:27.598Z,0.00
2018-12-22T00:17:27.588Z,0.00
2018-12-22T00:18:27.578Z,0.00
2018-12-22T00:19:27.561Z,0.00
2018-12-22T00:20:27.576Z,0.00
2018-12-22T00:21:27.544Z,0.00
2018-12-22T00:22:27.540Z,0.00
2018-12-22T00:23:27.523Z,0.00
2018-12-22T00:24:27.517Z,0.00
2018-12-22T00:25:27.501Z,0.00
2018-12-22T00:26:27.493Z,0.00
2018-12-22T00:27:27.479Z,0.00
2018-12-22T00:28:27.476Z,0.00
2018-12-22T00:29:27.462Z,0.00
2018-12-22T00:30:27.453Z,0.00
2018-12-22T00:31:27.439Z,0.00
2018-12-22T00:32:27.430Z,0.00
2018-12-22T00:33:27.437Z,0.00
2018-12-22T00:34:27.419Z,0.00
2018-12-22T00:35:27.401Z,0.00
2018-12-22T00:36:27.378Z,0.00
2018-12-22T00:37:27.374Z,0.00
2018-12-22T00:38:27.357Z,0.00
2018-12-22T00:39:27.362Z,0.00
2018-12-22T00:40:27.339Z,0.00
2018-12-22T00:41:27.333Z,0.00
2018-12-22T00:42:27.324Z,0.00
2018-12-22T00:43:27.328Z,0.00
2018-12-22T00:44:27.302Z,0.00
2018-12-22T00:45:27.302Z,0.00
2018-12-22T00:46:27.278Z,0.00
2018-12-22T00:47:27.278Z,0.00
2018-12-22T00:48:27.252Z,0.00
2018-12-22T00:49:27.246Z,0.00
2018-12-22T00:50:27.239Z,0.00
2018-12-22T00:51:27.235Z,0.00
2018-12-22T00:52:27.222Z,0.00
2018-12-22T00:53:27.202Z,0.00
2018-12-22T00:54:27.196Z,0.00
2018-12-22T00:55:27.185Z,0.00
2018-12-22T00:56:27.178Z,0.00
2018-12-22T00:57:27.162Z,0.00
2018-12-22T00:58:30.813Z,0.00
2018-12-22T00:59:27.153Z,0.00
2018-12-22T01:00:27.124Z,0.00
2018-12-22T01:01:27.115Z,0.00
2018-12-22T01:02:27.108Z,0.00
2018-12-22T01:03:27.099Z,0.00
2018-12-22T01:04:27.086Z,0.00
2018-12-22T01:05:27.082Z,0.00
2018-12-22T01:06:27.066Z,0.00
2018-12-22T01:07:27.058Z,0.00
2018-12-22T01:08:27.045Z,0.00
2018-12-22T01:09:27.039Z,0.00
2018-12-22T01:10:27.026Z,0.00
2018-12-22T01:11:27.006Z,0.00
2018-12-22T01:12:27.002Z,0.00
2018-12-22T01:13:26.988Z,0.00
2018-12-22T01:14:26.980Z,0.00
2018-12-22T01:15:26.966Z,0.00
2018-12-22T01:16:26.963Z,0.00
2018-12-22T01:17:26.942Z,0.00
2018-12-22T01:18:26.938Z,0.00
2018-12-22T01:19:26.953Z,0.00
2018-12-22T01:20:26.920Z,0.00
2018-12-22T01:21:26.900Z,0.00
2018-12-22T01:22:26.888Z,0.00
2018-12-22T01:23:26.885Z,0.00
2018-12-22T01:24:26.872Z,0.00
2018-12-22T01:25:26.858Z,0.00
2018-12-22T01:26:26.848Z,0.00
2018-12-22T01:27:26.838Z,0.00
2018-12-22T01:28:26.822Z,0.00
2018-12-22T01:29:26.815Z,0.00
2018-12-22T01:30:26.814Z,0.00
2018-12-22T01:31:26.800Z,0.00
2018-12-22T01:32:26.796Z,0.00
2018-12-22T01:33:26.772Z,0.00
2018-12-22T01:34:26.762Z,0.00
2018-12-22T01:35:26.754Z,0.00
2018-12-22T01:36:26.743Z,0.00
2018-12-22T01:37:26.729Z,0.00
2018-12-22T01:38:26.733Z,0.00
2018-12-22T01:39:26.718Z,0.00
2018-12-22T01:40:26.701Z,0.00
2018-12-22T01:41:26.690Z,0.00
2018-12-22T01:42:26.734Z,0.00
2018-12-22T01:43:26.668Z,0.00
2018-12-22T01:44:26.659Z,0.00
2018-12-22T01:45:26.646Z,0.00
2018-12-22T01:46:26.632Z,0.00
2018-12-22T01:47:26.626Z,0.00
2018-12-22T01:48:26.614Z,0.00
2018-12-22T01:49:26.695Z,0.00
2018-12-22T01:50:26.591Z,0.00
2018-12-22T01:51:26.586Z,0.00
2018-12-22T01:52:26.569Z,0.00
2018-12-22T01:53:26.560Z,0.00
2018-12-22T01:54:26.544Z,0.00
2018-12-22T01:55:26.542Z,0.00
2018-12-22T01:56:26.522Z,0.00
2018-12-22T01:57:26.514Z,0.00
2018-12-22T01:58:26.508Z,0.00
2018-12-22T01:59:26.500Z,0.00
2018-12-22T02:00:26.484Z,0.00
2018-12-22T02:01:26.477Z,0.00
2018-12-22T02:02:26.460Z,0.00
2018-12-22T02:03:26.446Z,0.00
2018-12-22T02:04:26.443Z,0.00
2018-12-22T02:05:26.448Z,0.00
2018-12-22T02:06:26.419Z,0.00
2018-12-22T02:07:26.417Z,0.00
2018-12-22T02:08:26.410Z,0.00
2018-12-22T02:09:26.392Z,0.00
2018-12-22T02:10:26.370Z,0.00
2018-12-22T02:11:26.368Z,0.00
2018-12-22T02:12:26.349Z,0.00
2018-12-22T02:13:26.340Z,0.00
2018-12-22T02:14:26.335Z,0.00
2018-12-22T02:15:26.328Z,0.00
2018-12-22T02:16:26.311Z,0.00
2018-12-22T02:17:26.300Z,0.00
2018-12-22T02:18:26.299Z,0.00
2018-12-22T02:19:26.284Z,0.00
2018-12-22T02:20:26.265Z,0.00
2018-12-22T02:21:26.258Z,0.00
2018-12-22T02:22:26.256Z,0.00
2018-12-22T02:23:26.233Z,0.00
2018-12-22T02:24:26.228Z,0.00
2018-12-22T02:25:26.215Z,0.00
2018-12-22T02:26:26.206Z,0.00
2018-12-22T02:27:26.200Z,0.00
2018-12-22T02:28:26.200Z,0.00
2018-12-22T02:29:26.169Z,0.00
2018-12-22T02:30:26.165Z,0.00
2018-12-22T02:31:26.160Z,0.00
2018-12-22T02:32:26.141Z,0.00
2018-12-22T02:33:26.167Z,0.00
2018-12-22T02:34:26.194Z,0.00
2018-12-22T02:35:26.103Z,0.00
2018-12-22T02:36:26.093Z,0.00
2018-12-22T02:37:26.091Z,0.00
2018-12-22T02:38:26.075Z,0.00
2018-12-22T02:39:26.061Z,0.00
2018-12-22T02:40:26.051Z,0.00
2018-12-22T02:41:26.057Z,0.00
2018-12-22T02:42:26.039Z,0.00
2018-12-22T02:43:26.021Z,0.00
2018-12-22T02:44:26.005Z,0.00
2018-12-22T02:45:25.995Z,0.00
2018-12-22T02:46:25.993Z,0.00
2018-12-22T02:47:25.977Z,0.00
2018-12-22T02:48:25.961Z,0.00
2018-12-22T02:49:25.953Z,0.00
2018-12-22T02:50:25.942Z,0.00
2018-12-22T02:51:25.927Z,0.00
2018-12-22T02:52:25.918Z,0.00
2018-12-22T02:53:25.905Z,0.00
2018-12-22T02:54:25.912Z,0.00
2018-12-22T02:55:25.884Z,0.00
2018-12-22T02:56:25.879Z,0.00
2018-12-22T02:57:25.864Z,0.00
2018-12-22T02:58:25.851Z,0.00
2018-12-22T02:59:25.841Z,0.00
2018-12-22T03:00:25.829Z,0.00
2018-12-22T03:01:25.828Z,0.00
2018-12-22T03:02:25.813Z,0.00
2018-12-22T03:03:25.797Z,0.00
2018-12-22T03:04:25.812Z,0.00
2018-12-22T03:05:25.787Z,0.00
2018-12-22T03:06:25.763Z,0.00
2018-12-22T03:07:25.752Z,0.00
2018-12-22T03:08:25.744Z,0.00
2018-12-22T03:09:25.736Z,0.00
2018-12-22T03:10:25.719Z,0.00
2018-12-22T03:11:25.711Z,0.00
2018-12-22T03:12:25.699Z,0.00
2018-12-22T03:13:25.689Z,0.00
2018-12-22T03:14:25.693Z,0.00
2018-12-22T03:15:25.675Z,0.00
2018-12-22T03:16:25.667Z,0.00
2018-12-22T03:17:25.679Z,0.00
2018-12-22T03:18:25.641Z,0.00
2018-12-22T03:19:25.624Z,0.00
2018-12-22T03:20:25.613Z,0.00
2018-12-22T03:21:25.601Z,0.00
2018-12-22T03:22:25.595Z,0.00
2018-12-22T03:23:25.584Z,0.00
2018-12-22T03:24:25.565Z,0.00
2018-12-22T03:25:25.561Z,0.00
2018-12-22T03:26:25.555Z,0.00
2018-12-22T03:27:25.564Z,0.00
2018-12-22T03:28:25.524Z,0.00
2018-12-22T03:29:25.524Z,0.00
2018-12-22T03:30:25.513Z,0.00
2018-12-22T03:31:25.519Z,0.00
2018-12-22T03:32:25.485Z,0.00
2018-12-22T03:33:25.475Z,0.00
2018-12-22T03:34:25.461Z,0.00
2018-12-22T03:35:25.463Z,0.00
2018-12-22T03:36:25.439Z,0.00
2018-12-22T03:37:25.425Z,0.00
2018-12-22T03:38:25.421Z,0.00
2018-12-22T03:39:25.414Z,0.00
2018-12-22T03:40:25.407Z,0.00
2018-12-22T03:41:25.383Z,0.00
2018-12-22T03:42:25.377Z,0.00
2018-12-22T03:43:25.364Z,0.00
2018-12-22T03:44:25.356Z,0.00
2018-12-22T03:45:25.345Z,0.00
2018-12-22T03:46:25.346Z,0.00
2018-12-22T03:47:25.323Z,0.00
2018-12-22T03:48:25.307Z,0.00
2018-12-22T03:49:25.297Z,0.00
2018-12-22T03:50:25.289Z,0.00
2018-12-22T03:51:25.380Z,0.00
2018-12-22T03:52:25.277Z,0.00
2018-12-22T03:53:25.275Z,0.00
2018-12-22T03:54:25.245Z,0.00
2018-12-22T03:55:25.233Z,0.00
2018-12-22T03:56:25.232Z,0.00
2018-12-22T03:57:25.209Z,0.00
2018-12-22T03:58:25.218Z,0.00
2018-12-22T03:59:25.383Z,0.00
2018-12-22T04:00:25.172Z,0.00
2018-12-22T04:01:25.167Z,0.00
2018-12-22T04:02:25.149Z,0.00
2018-12-22T04:03:25.167Z,0.00
2018-12-22T04:04:25.151Z,0.00
2018-12-22T04:05:25.119Z,0.00
2018-12-22T04:06:25.105Z,0.00
2018-12-22T04:07:25.105Z,0.00
2018-12-22T04:08:25.090Z,0.00
2018-12-22T04:09:25.091Z,0.00
2018-12-22T04:10:25.073Z,0.00
2018-12-22T04:11:25.056Z,0.00
2018-12-22T04:12:25.053Z,0.00
2018-12-22T04:13:25.035Z,0.00
2018-12-22T04:14:25.023Z,0.00
2018-12-22T04:15:25.016Z,0.00
2018-12-22T04:16:25.016Z,0.00
2018-12-22T04:17:24.994Z,0.00
2018-12-22T04:18:24.971Z,0.00
2018-12-22T04:19:24.965Z,0.00
2018-12-22T04:20:24.959Z,0.00
2018-12-22T04:21:24.956Z,0.00
2018-12-22T04:22:24.935Z,0.00
2018-12-22T04:23:24.920Z,0.00
2018-12-22T04:24:24.908Z,0.00
2018-12-22T04:25:24.998Z,0.00
2018-12-22T04:26:24.934Z,0.00
2018-12-22T04:27:24.887Z,0.00
2018-12-22T04:28:24.864Z,0.00
2018-12-22T04:29:33.632Z,0.00
2018-12-22T04:30:25.845Z,0.00
2018-12-22T04:31:24.849Z,0.00
2018-12-22T04:32:24.825Z,0.00
2018-12-22T04:33:24.834Z,0.00
2018-12-22T04:34:24.802Z,0.00
2018-12-22T04:35:24.788Z,0.00
2018-12-22T04:36:24.778Z,0.00
2018-12-22T04:37:24.770Z,0.00
2018-12-22T04:38:24.758Z,0.00
2018-12-22T04:39:24.772Z,0.00
2018-12-22T04:40:24.738Z,0.00
2018-12-22T04:41:24.720Z,0.00
2018-12-22T04:42:24.716Z,0.00
2018-12-22T04:43:24.702Z,0.00
2018-12-22T04:44:24.695Z,4.00
2018-12-22T04:45:24.678Z,4.00
2018-12-22T04:46:24.668Z,4.00
2018-12-22T04:47:24.658Z,0.00
2018-12-22T04:48:24.642Z,4.00
2018-12-22T04:49:24.638Z,4.00
2018-12-22T04:50:24.626Z,4.00
2018-12-22T04:51:24.622Z,4.00
2018-12-22T04:52:24.604Z,4.00
2018-12-22T04:53:24.585Z,4.00
2018-12-22T04:54:24.581Z,4.00
2018-12-22T04:55:24.572Z,4.00
2018-12-22T04:56:24.572Z,4.00
2018-12-22T04:57:24.561Z,4.00
2018-12-22T04:58:24.539Z,4.00
2018-12-22T04:59:24.537Z,4.00
2018-12-22T05:00:24.519Z,4.00
2018-12-22T05:01:24.536Z,4.00
2018-12-22T05:02:24.518Z,4.00
2018-12-22T05:03:24.483Z,4.00
2018-12-22T05:04:24.469Z,4.00
2018-12-22T05:05:24.466Z,4.00
2018-12-22T05:06:24.447Z,4.00
2018-12-22T05:07:24.438Z,4.00
2018-12-22T05:08:24.424Z,4.00
2018-12-22T05:09:24.413Z,4.00
2018-12-22T05:10:24.410Z,4.00
2018-12-22T05:11:24.398Z,4.00
2018-12-22T05:12:24.385Z,4.00
2018-12-22T05:13:24.378Z,4.00
2018-12-22T05:14:24.372Z,4.00
2018-12-22T05:15:24.507Z,4.00
2018-12-22T05:16:24.341Z,4.00
2018-12-22T05:17:24.324Z,0.00
2018-12-22T05:18:24.318Z,4.00
2018-12-22T05:19:24.311Z,4.00
2018-12-22T05:20:24.306Z,4.00
2018-12-22T05:21:24.281Z,4.00
2018-12-22T05:22:24.270Z,4.00
2018-12-22T05:23:24.260Z,0.00
2018-12-22T05:24:24.258Z,4.00
2018-12-22T05:25:24.248Z,4.00
2018-12-22T05:26:24.239Z,4.00
2018-12-22T05:27:24.215Z,4.00
2018-12-22T05:28:24.214Z,4.00
2018-12-22T05:29:24.189Z,4.00
2018-12-22T05:30:24.189Z,4.00
2018-12-22T05:31:24.174Z,4.00
2018-12-22T05:32:24.163Z,4.00
2018-12-22T05:33:24.154Z,4.00
2018-12-22T05:34:24.140Z,4.00
2018-12-22T05:35:24.130Z,4.00
2018-12-22T05:36:24.120Z,4.00
2018-12-22T05:37:24.113Z,4.00
2018-12-22T05:38:24.153Z,4.00
2018-12-22T05:39:24.087Z,4.00
2018-12-22T05:40:24.081Z,4.00
2018-12-22T05:41:24.079Z,4.00
2018-12-22T05:42:24.056Z,4.00
2018-12-22T05:43:24.058Z,4.00
2018-12-22T05:44:24.029Z,4.00
2018-12-22T05:45:24.020Z,4.00
2018-12-22T05:46:24.003Z,0.00
2018-12-22T05:47:24.006Z,4.00
2018-12-22T05:48:23.990Z,4.00
2018-12-22T05:49:23.974Z,4.00
2018-12-22T05:50:23.964Z,4.00
2018-12-22T05:51:23.965Z,4.00
2018-12-22T05:52:23.946Z,4.00
2018-12-22T05:53:23.940Z,4.00
2018-12-22T05:54:23.944Z,4.00
2018-12-22T05:55:23.903Z,4.00
2018-12-22T05:56:23.903Z,4.00
2018-12-22T05:57:23.885Z,4.00
2018-12-22T05:58:23.874Z,4.00
2018-12-22T05:59:23.867Z,4.00
2018-12-22T06:00:23.856Z,4.00
2018-12-22T06:01:23.837Z,4.00
2018-12-22T06:02:23.839Z,4.00
2018-12-22T06:03:23.825Z,4.00
2018-12-22T06:04:23.823Z,4.00
2018-12-22T06:05:23.801Z,4.00
2018-12-22T06:06:23.791Z,0.00
2018-12-22T06:07:23.784Z,4.00
2018-12-22T06:08:23.771Z,4.00
2018-12-22T06:09:23.767Z,4.00
2018-12-22T06:10:23.750Z,4.00
2018-12-22T06:11:23.743Z,4.00
2018-12-22T06:12:23.721Z,4.00
2018-12-22T06:13:23.710Z,4.00
2018-12-22T06:14:23.699Z,4.00
2018-12-22T06:15:23.685Z,4.00
2018-12-22T06:16:23.683Z,4.00
2018-12-22T06:17:23.677Z,4.00
2018-12-22T06:18:23.661Z,4.00
2018-12-22T06:19:23.645Z,4.00
2018-12-22T06:20:23.635Z,4.00
2018-12-22T06:21:23.618Z,4.00
2018-12-22T06:22:23.606Z,4.00
2018-12-22T06:23:23.607Z,4.00
2018-12-22T06:24:23.594Z,4.00
2018-12-22T06:25:23.582Z,4.00
2018-12-22T06:26:23.570Z,4.00
2018-12-22T06:27:23.568Z,4.00
2018-12-22T06:28:23.545Z,0.00
2018-12-22T06:29:23.538Z,0.00
2018-12-22T06:30:23.528Z,4.00
2018-12-22T06:31:23.511Z,0.00
2018-12-22T06:32:23.505Z,0.00
2018-12-22T06:33:23.492Z,0.00
2018-12-22T06:34:23.481Z,0.00
2018-12-22T06:35:23.469Z,0.00
2018-12-22T06:36:23.455Z,0.00
2018-12-22T06:37:23.445Z,0.00
2018-12-22T06:38:23.437Z,0.00
2018-12-22T06:39:23.425Z,0.00
2018-12-22T06:40:23.422Z,0.00
2018-12-22T06:41:23.405Z,0.00
2018-12-22T06:42:23.391Z,0.00
2018-12-22T06:43:23.380Z,0.00
2018-12-22T06:44:23.375Z,0.00
2018-12-22T06:45:23.353Z,0.00
2018-12-22T06:46:23.347Z,0.00
2018-12-22T06:47:23.336Z,0.00
2018-12-22T06:48:23.325Z,4.00
2018-12-22T06:49:23.317Z,4.00
2018-12-22T06:50:23.328Z,4.00
2018-12-22T06:51:23.301Z,4.00
2018-12-22T06:52:23.282Z,4.00
2018-12-22T06:53:23.271Z,4.00
2018-12-22T06:54:23.259Z,4.00
2018-12-22T06:55:23.245Z,4.00
2018-12-22T06:56:23.239Z,4.00
2018-12-22T06:57:23.230Z,4.00
2018-12-22T06:58:23.216Z,4.00
2018-12-22T06:59:23.209Z,8.00
2018-12-22T07:00:23.193Z,4.00
2018-12-22T07:01:23.193Z,8.00
2018-12-22T07:02:23.173Z,12.00
2018-12-22T07:03:23.165Z,12.00
2018-12-22T07:04:23.151Z,12.00
2018-12-22T07:05:23.142Z,16.00
2018-12-22T07:06:23.134Z,16.00
2018-12-22T07:07:23.115Z,20.00
2018-12-22T07:08:23.112Z,24.00
2018-12-22T07:09:23.093Z,24.00
2018-12-22T07:10:23.088Z,32.00
2018-12-22T07:11:23.072Z,40.00
2018-12-22T07:12:23.057Z,48.00
2018-12-22T07:13:23.055Z,52.00
2018-12-22T07:14:23.049Z,60.00
2018-12-22T07:15:23.029Z,76.00
2018-12-22T07:16:23.022Z,84.00
2018-12-22T07:17:23.004Z,92.00
2018-12-22T07:18:23.007Z,100.00
2018-12-22T07:19:22.989Z,104.00
2018-12-22T07:20:22.977Z,108.00
2018-12-22T07:21:22.968Z,120.00
2018-12-22T07:22:23.484Z,124.00
2018-12-22T07:23:22.941Z,136.00
2018-12-22T07:24:22.937Z,132.00
2018-12-22T07:25:22.919Z,128.00
2018-12-22T07:26:22.925Z,124.00
2018-12-22T07:27:22.926Z,124.00
2018-12-22T07:28:22.886Z,140.00
2018-12-22T07:29:22.877Z,144.00
2018-12-22T07:30:26.289Z,140.00
2018-12-22T07:31:22.859Z,132.00
2018-12-22T07:32:22.847Z,116.00
2018-12-22T07:33:22.837Z,108.00
2018-12-22T07:34:22.827Z,108.00
2018-12-22T07:35:22.815Z,96.00
2018-12-22T07:36:22.797Z,100.00
2018-12-22T07:37:22.810Z,104.00
2018-12-22T07:38:22.787Z,108.00
2018-12-22T07:39:22.795Z,88.00
2018-12-22T07:40:22.765Z,92.00
2018-12-22T07:41:22.748Z,88.00
2018-12-22T07:42:22.737Z,96.00
2018-12-22T07:43:22.731Z,132.00
2018-12-22T07:44:22.729Z,160.00
2018-12-22T07:45:22.701Z,176.00
2018-12-22T07:46:22.695Z,184.00
2018-12-22T07:47:22.677Z,184.00
2018-12-22T07:48:22.672Z,160.00
2018-12-22T07:49:22.693Z,160.00
2018-12-22T07:50:22.645Z,180.00
2018-12-22T07:51:22.641Z,204.00
2018-12-22T07:52:22.643Z,236.00
2018-12-22T07:53:22.617Z,304.00
2018-12-22T07:54:22.603Z,348.00
2018-12-22T07:55:22.611Z,348.00
2018-12-22T07:56:22.587Z,328.00
2018-12-22T07:57:22.573Z,364.00
2018-12-22T07:58:22.559Z,484.00
2018-12-22T07:59:22.553Z,600.00
2018-12-22T08:00:22.543Z,684.00
2018-12-22T08:01:22.531Z,620.00
2018-12-22T08:02:22.520Z,520.00
2018-12-22T08:03:22.509Z,464.00
2018-12-22T08:04:22.498Z,416.00
2018-12-22T08:05:22.490Z,372.00
2018-12-22T08:06:22.479Z,376.00
2018-12-22T08:07:22.471Z,380.00
2018-12-22T08:08:23.706Z,380.00
2018-12-22T08:09:22.455Z,364.00
2018-12-22T08:10:22.433Z,344.00
2018-12-22T08:11:22.424Z,364.00
2018-12-22T08:12:22.447Z,352.00
2018-12-22T08:13:22.406Z,348.00
2018-12-22T08:14:22.395Z,372.00
2018-12-22T08:15:22.381Z,416.00
2018-12-22T08:16:22.367Z,356.00
2018-12-22T08:17:22.353Z,360.00
2018-12-22T08:18:22.353Z,412.00
2018-12-22T08:19:22.333Z,488.00
2018-12-22T08:20:22.326Z,492.00
2018-12-22T08:21:22.319Z,432.00
2018-12-22T08:22:22.310Z,384.00
2018-12-22T08:23:22.295Z,348.00
2018-12-22T08:24:22.287Z,368.00
2018-12-22T08:25:22.297Z,336.00
2018-12-22T08:26:22.273Z,296.00
2018-12-22T08:27:22.253Z,288.00
2018-12-22T08:28:22.249Z,304.00
2018-12-22T08:29:22.235Z,320.00
2018-12-22T08:30:22.221Z,356.00
2018-12-22T08:31:23.164Z,384.00
2018-12-22T08:32:22.201Z,364.00
2018-12-22T08:33:22.219Z,368.00
2018-12-22T08:34:22.173Z,452.00
2018-12-22T08:35:22.167Z,456.00
2018-12-22T08:36:22.162Z,320.00
2018-12-22T08:37:22.147Z,300.00
2018-12-22T08:38:22.145Z,364.00
2018-12-22T08:39:22.122Z,436.00
2018-12-22T08:40:22.111Z,360.00
2018-12-22T08:41:22.101Z,316.00
2018-12-22T08:42:22.098Z,284.00
2018-12-22T08:43:22.103Z,280.00
2018-12-22T08:44:22.069Z,284.00
2018-12-22T08:45:22.054Z,276.00
2018-12-22T08:46:22.049Z,264.00
2018-12-22T08:47:22.037Z,312.00
2018-12-22T08:48:22.052Z,360.00
2018-12-22T08:49:22.026Z,388.00
2018-12-22T08:50:22.003Z,412.00
2018-12-22T08:51:21.996Z,408.00
2018-12-22T08:52:21.985Z,480.00
2018-12-22T08:53:21.973Z,536.00
2018-12-22T08:54:21.975Z,468.00
2018-12-22T08:55:21.955Z,520.00
2018-12-22T08:56:21.937Z,556.00
2018-12-22T08:57:21.930Z,584.00
2018-12-22T08:58:21.921Z,628.00
2018-12-22T08:59:21.905Z,588.00
2018-12-22T09:00:21.903Z,608.00
2018-12-22T09:01:21.889Z,584.00
2018-12-22T09:02:21.872Z,572.00
2018-12-22T09:03:21.865Z,608.00
2018-12-22T09:04:21.852Z,636.00
2018-12-22T09:05:21.847Z,612.00
2018-12-22T09:06:21.830Z,568.00
2018-12-22T09:07:21.821Z,488.00
2018-12-22T09:08:21.810Z,496.00
2018-12-22T09:09:21.797Z,564.00
2018-12-22T09:10:21.788Z,484.00
2018-12-22T09:11:21.807Z,404.00
2018-12-22T09:12:21.786Z,416.00
2018-12-22T09:13:21.757Z,540.00
2018-12-22T09:14:21.749Z,592.00
2018-12-22T09:15:21.739Z,504.00
2018-12-22T09:16:21.722Z,444.00
2018-12-22T09:17:21.720Z,472.00
2018-12-22T09:18:21.726Z,476.00
2018-12-22T09:19:21.702Z,532.00
2018-12-22T09:20:21.683Z,484.00
2018-12-22T09:21:21.664Z,372.00
2018-12-22T09:22:21.662Z,344.00
2018-12-22T09:23:21.655Z,376.00
2018-12-22T09:24:21.654Z,436.00
2018-12-22T09:25:21.624Z,496.00
2018-12-22T09:26:21.613Z,532.00
2018-12-22T09:27:21.602Z,548.00
2018-12-22T09:28:21.591Z,608.00
2018-12-22T09:29:21.593Z,636.00
2018-12-22T09:30:21.596Z,636.00
2018-12-22T09:31:21.567Z,624.00
2018-12-22T09:32:21.548Z,600.00
2018-12-22T09:33:21.549Z,548.00
2018-12-22T09:34:21.532Z,492.00
2018-12-22T09:35:21.524Z,508.00
2018-12-22T09:36:21.506Z,476.00
2018-12-22T09:37:21.514Z,448.00
2018-12-22T09:38:21.491Z,396.00
2018-12-22T09:39:21.476Z,356.00
2018-12-22T09:40:21.463Z,356.00
2018-12-22T09:41:21.452Z,384.00
2018-12-22T09:42:21.476Z,372.00
2018-12-22T09:43:21.434Z,356.00
2018-12-22T09:44:21.431Z,336.00
2018-12-22T09:45:21.407Z,336.00
2018-12-22T09:46:21.400Z,340.00
2018-12-22T09:47:21.400Z,316.00
2018-12-22T09:48:21.391Z,360.00
2018-12-22T09:49:21.363Z,404.00
2018-12-22T09:50:21.355Z,444.00
2018-12-22T09:51:21.342Z,444.00
2018-12-22T09:52:21.331Z,540.00
2018-12-22T09:53:21.331Z,716.00
2018-12-22T09:54:21.307Z,888.00
2018-12-22T09:55:21.309Z,880.00
2018-12-22T09:56:21.284Z,848.00
2018-12-22T09:57:21.273Z,784.00
2018-12-22T09:58:21.265Z,688.00
2018-12-22T09:59:21.257Z,608.00
2018-12-22T10:00:21.261Z,560.00
2018-12-22T10:01:21.232Z,540.00
2018-12-22T10:02:21.228Z,484.00
2018-12-22T10:03:21.214Z,444.00
2018-12-22T10:04:21.202Z,448.00
2018-12-22T10:05:21.190Z,456.00
2018-12-22T10:06:21.184Z,444.00
2018-12-22T10:07:21.169Z,420.00
2018-12-22T10:08:21.163Z,416.00
2018-12-22T10:09:21.148Z,424.00
2018-12-22T10:10:21.138Z,416.00
2018-12-22T10:11:21.126Z,508.00
2018-12-22T10:12:21.116Z,548.00
2018-12-22T10:13:21.109Z,572.00
2018-12-22T10:14:21.093Z,584.00
2018-12-22T10:15:21.088Z,548.00
2018-12-22T10:16:21.074Z,532.00
2018-12-22T10:17:21.070Z,512.00
2018-12-22T10:18:21.049Z,448.00
2018-12-22T10:19:21.042Z,348.00
2018-12-22T10:20:21.033Z,296.00
2018-12-22T10:21:21.026Z,236.00
2018-12-22T10:22:21.006Z,200.00
2018-12-22T10:23:21.015Z,176.00
2018-12-22T10:24:20.994Z,152.00
2018-12-22T10:25:20.965Z,144.00
2018-12-22T10:26:20.959Z,144.00
2018-12-22T10:27:22.515Z,148.00
2018-12-22T10:28:20.944Z,140.00
2018-12-22T10:29:20.924Z,148.00
2018-12-22T10:30:20.914Z,152.00
2018-12-22T10:31:20.907Z,156.00
2018-12-22T10:32:20.894Z,176.00
2018-12-22T10:33:20.890Z,208.00
2018-12-22T10:34:20.874Z,224.00
2018-12-22T10:35:20.862Z,224.00
2018-12-22T10:36:20.852Z,232.00
2018-12-22T10:37:20.842Z,228.00
2018-12-22T10:38:20.896Z,228.00
2018-12-22T10:39:20.830Z,236.00
2018-12-22T10:40:20.805Z,252.00
2018-12-22T10:41:20.792Z,264.00
2018-12-22T10:42:20.791Z,276.00
2018-12-22T10:43:20.771Z,288.00
2018-12-22T10:44:20.784Z,284.00
2018-12-22T10:45:20.760Z,284.00
2018-12-22T10:46:20.775Z,280.00
2018-12-22T10:47:20.728Z,280.00
2018-12-22T10:48:20.718Z,292.00
2018-12-22T10:49:20.708Z,288.00
2018-12-22T10:50:20.705Z,268.00
2018-12-22T10:51:24.344Z,280.00
2018-12-22T10:52:20.684Z,296.00
2018-12-22T10:53:20.668Z,308.00
2018-12-22T10:54:20.670Z,324.00
2018-12-22T10:55:20.642Z,332.00
2018-12-22T10:56:20.644Z,332.00
2018-12-22T10:57:20.621Z,340.00
2018-12-22T10:58:20.610Z,372.00
2018-12-22T10:59:20.618Z,412.00
2018-12-22T11:00:20.595Z,428.00
2018-12-22T11:01:26.392Z,432.00
2018-12-22T11:02:23.686Z,432.00
2018-12-22T11:03:20.554Z,424.00
2018-12-22T11:04:20.554Z,440.00
2018-12-22T11:05:20.561Z,460.00
2018-12-22T11:06:20.562Z,476.00
2018-12-22T11:07:20.511Z,540.00
2018-12-22T11:08:20.504Z,536.00
2018-12-22T11:09:20.493Z,540.00
2018-12-22T11:10:20.480Z,556.00
2018-12-22T11:11:20.484Z,556.00
2018-12-22T11:12:20.474Z,620.00
2018-12-22T11:13:20.452Z,636.00
2018-12-22T11:14:20.448Z,800.00
2018-12-22T11:15:20.426Z,884.00
2018-12-22T11:16:20.416Z,976.00
2018-12-22T11:17:20.408Z,1192.00
2018-12-22T11:18:20.410Z,1244.00
2018-12-22T11:19:20.384Z,1216.00
2018-12-22T11:20:20.388Z,1100.00
2018-12-22T11:21:20.367Z,1092.00
2018-12-22T11:22:20.375Z,1020.00
2018-12-22T11:23:20.803Z,992.00
2018-12-22T11:24:20.346Z,944.00
2018-12-22T11:25:20.325Z,928.00
2018-12-22T11:26:20.310Z,916.00
2018-12-22T11:27:20.310Z,904.00
2018-12-22T11:28:20.286Z,892.00
2018-12-22T11:29:20.283Z,816.00
2018-12-22T11:30:20.262Z,768.00
2018-12-22T11:31:20.268Z,768.00
2018-12-22T11:32:20.252Z,744.00
2018-12-22T11:33:20.234Z,732.00
2018-12-22T11:34:20.232Z,724.00
2018-12-22T11:35:20.232Z,748.00
2018-12-22T11:36:20.218Z,780.00
2018-12-22T11:37:20.193Z,828.00
2018-12-22T11:38:20.185Z,792.00
2018-12-22T11:39:20.171Z,804.00
2018-12-22T11:40:20.155Z,764.00
2018-12-22T11:41:20.143Z,720.00
2018-12-22T11:42:20.138Z,724.00
2018-12-22T11:43:20.139Z,736.00
2018-12-22T11:44:20.114Z,768.00
2018-12-22T11:45:20.124Z,836.00
2018-12-22T11:46:20.090Z,852.00
2018-12-22T11:47:20.085Z,880.00
2018-12-22T11:48:20.071Z,880.00
2018-12-22T11:49:20.066Z,880.00
2018-12-22T11:50:20.048Z,892.00
2018-12-22T11:51:20.041Z,912.00
2018-12-22T11:52:20.026Z,956.00
2018-12-22T11:53:20.016Z,968.00
2018-12-22T11:54:20.006Z,992.00
2018-12-22T11:55:20.003Z,1036.00
2018-12-22T11:56:19.984Z,1144.00
2018-12-22T11:57:19.972Z,1204.00
2018-12-22T11:58:19.973Z,1124.00
2018-12-22T11:59:19.948Z,512.00
2018-12-22T12:00:19.944Z,944.00
2018-12-22T12:01:19.945Z,900.00
2018-12-22T12:02:19.914Z,860.00
2018-12-22T12:03:19.912Z,804.00
2018-12-22T12:04:19.891Z,812.00
2018-12-22T12:05:19.882Z,816.00
2018-12-22T12:06:19.882Z,792.00
2018-12-22T12:07:19.861Z,764.00
2018-12-22T12:08:19.865Z,736.00
2018-12-22T12:09:19.846Z,696.00
2018-12-22T12:10:19.840Z,660.00
2018-12-22T12:11:19.834Z,660.00
2018-12-22T12:12:19.812Z,644.00
2018-12-22T12:13:19.800Z,628.00
2018-12-22T12:14:19.794Z,612.00
2018-12-22T12:15:19.776Z,640.00
2018-12-22T12:16:19.768Z,672.00
2018-12-22T12:17:19.755Z,628.00
2018-12-22T12:18:19.746Z,596.00
2018-12-22T12:19:19.733Z,572.00
2018-12-22T12:20:19.720Z,536.00
2018-12-22T12:21:19.732Z,496.00
2018-12-22T12:22:19.718Z,480.00
2018-12-22T12:23:19.687Z,420.00
2018-12-22T12:24:19.678Z,412.00
2018-12-22T12:25:19.669Z,456.00
2018-12-22T12:26:19.653Z,488.00
2018-12-22T12:27:19.644Z,500.00
2018-12-22T12:28:19.633Z,520.00
2018-12-22T12:29:19.626Z,572.00
2018-12-22T12:30:19.616Z,624.00
2018-12-22T12:31:19.608Z,660.00
2018-12-22T12:32:19.589Z,676.00
2018-12-22T12:33:19.587Z,676.00
2018-12-22T12:34:19.592Z,684.00
2018-12-22T12:35:19.562Z,692.00
2018-12-22T12:36:19.562Z,700.00
2018-12-22T12:37:19.552Z,688.00
2018-12-22T12:38:19.522Z,632.00
2018-12-22T12:39:19.517Z,596.00
2018-12-22T12:40:19.505Z,668.00
2018-12-22T12:41:19.500Z,688.00
2018-12-22T12:42:19.488Z,704.00
2018-12-22T12:43:19.481Z,696.00
2018-12-22T12:44:19.486Z,596.00
2018-12-22T12:45:19.456Z,572.00
2018-12-22T12:46:19.435Z,528.00
2018-12-22T12:47:19.438Z,472.00
2018-12-22T12:48:19.418Z,420.00
2018-12-22T12:49:19.408Z,416.00
2018-12-22T12:50:19.398Z,412.00
2018-12-22T12:51:19.390Z,372.00
2018-12-22T12:52:19.384Z,356.00
2018-12-22T12:53:19.366Z,388.00
2018-12-22T12:54:19.351Z,404.00
2018-12-22T12:55:19.344Z,392.00